sensor_id;sensor_type;location;lat;lon;timestamp;P1;durP1;ratioP1;P2;durP2;ratioP2
19183;SDS011;9724;51.194;6.856;2022-11-20T00:01:04;25.57;;;13.60;;
19183;SDS011;9724;51.194;6.856;2022-11-20T00:03:31;23.13;;;13.03;;
19183;SDS011;9724;51.194;6.856;2022-11-20T00:05:59;22.87;;;13.10;;
19183;SDS011;9724;51.194;6.856;2022-11-20T00:08:26;24.63;;;13.50;;
19183;SDS011;9724;51.194;6.856;2022-11-20T00:10:52;27.23;;;14.27;;
19183;SDS011;9724;51.194;6.856;2022-11-20T00:13:18;23.37;;;13.37;;
19183;SDS011;9724;51.194;6.856;2022-11-20T00:15:45;28.30;;;13.93;;
19183;SDS011;9724;51.194;6.856;2022-11-20T00:18:11;27.60;;;14.47;;
19183;SDS011;9724;51.194;6.856;2022-11-20T00:20:37;23.97;;;12.90;;
19183;SDS011;9724;51.194;6.856;2022-11-20T00:23:04;25.77;;;12.90;;
19183;SDS011;9724;51.194;6.856;2022-11-20T00:25:31;24.23;;;12.60;;
19183;SDS011;9724;51.194;6.856;2022-11-20T00:27:57;25.20;;;12.63;;
19183;SDS011;9724;51.194;6.856;2022-11-20T00:30:23;22.80;;;12.70;;
19183;SDS011;9724;51.194;6.856;2022-11-20T00:32:52;29.33;;;13.43;;
19183;SDS011;9724;51.194;6.856;2022-11-20T00:35:18;23.73;;;12.80;;
19183;SDS011;9724;51.194;6.856;2022-11-20T00:37:44;26.40;;;13.10;;
19183;SDS011;9724;51.194;6.856;2022-11-20T00:40:12;22.70;;;12.50;;
19183;SDS011;9724;51.194;6.856;2022-11-20T00:42:38;23.13;;;13.17;;
19183;SDS011;9724;51.194;6.856;2022-11-20T00:45:05;25.10;;;13.93;;
19183;SDS011;9724;51.194;6.856;2022-11-20T00:47:32;27.47;;;13.57;;
19183;SDS011;9724;51.194;6.856;2022-11-20T00:49:59;25.60;;;13.43;;
19183;SDS011;9724;51.194;6.856;2022-11-20T00:52:25;24.20;;;13.47;;
19183;SDS011;9724;51.194;6.856;2022-11-20T00:54:51;21.67;;;12.97;;
19183;SDS011;9724;51.194;6.856;2022-11-20T00:57:18;25.80;;;13.53;;
19183;SDS011;9724;51.194;6.856;2022-11-20T00:59:44;26.57;;;14.23;;
19183;SDS011;9724;51.194;6.856;2022-11-20T01:02:10;28.00;;;14.50;;
19183;SDS011;9724;51.194;6.856;2022-11-20T01:04:36;27.87;;;14.73;;
19183;SDS011;9724;51.194;6.856;2022-11-20T01:07:02;28.83;;;15.17;;
19183;SDS011;9724;51.194;6.856;2022-11-20T01:09:29;29.17;;;15.37;;
19183;SDS011;9724;51.194;6.856;2022-11-20T01:11:55;29.20;;;15.00;;
19183;SDS011;9724;51.194;6.856;2022-11-20T01:14:22;25.40;;;14.87;;
19183;SDS011;9724;51.194;6.856;2022-11-20T01:16:49;26.00;;;14.57;;
19183;SDS011;9724;51.194;6.856;2022-11-20T01:19:17;27.67;;;13.93;;
19183;SDS011;9724;51.194;6.856;2022-11-20T01:21:46;26.30;;;14.07;;
19183;SDS011;9724;51.194;6.856;2022-11-20T01:24:15;26.07;;;13.97;;
19183;SDS011;9724;51.194;6.856;2022-11-20T01:26:43;25.53;;;13.07;;
19183;SDS011;9724;51.194;6.856;2022-11-20T01:29:10;25.07;;;13.40;;
19183;SDS011;9724;51.194;6.856;2022-11-20T01:31:40;23.23;;;13.27;;
19183;SDS011;9724;51.194;6.856;2022-11-20T01:34:07;23.37;;;12.77;;
19183;SDS011;9724;51.194;6.856;2022-11-20T01:36:36;26.63;;;13.97;;
19183;SDS011;9724;51.194;6.856;2022-11-20T01:39:04;27.67;;;13.80;;
19183;SDS011;9724;51.194;6.856;2022-11-20T01:41:33;23.97;;;13.67;;
19183;SDS011;9724;51.194;6.856;2022-11-20T01:44:18;30.70;;;14.60;;
19183;SDS011;9724;51.194;6.856;2022-11-20T01:46:49;27.17;;;13.83;;
19183;SDS011;9724;51.194;6.856;2022-11-20T01:49:20;25.17;;;13.30;;
19183;SDS011;9724;51.194;6.856;2022-11-20T01:51:50;28.40;;;14.20;;
19183;SDS011;9724;51.194;6.856;2022-11-20T01:54:18;29.23;;;14.70;;
19183;SDS011;9724;51.194;6.856;2022-11-20T01:56:47;25.97;;;13.97;;
19183;SDS011;9724;51.194;6.856;2022-11-20T01:59:16;26.33;;;14.47;;
19183;SDS011;9724;51.194;6.856;2022-11-20T02:01:44;27.73;;;14.93;;
19183;SDS011;9724;51.194;6.856;2022-11-20T02:04:11;24.63;;;14.10;;
19183;SDS011;9724;51.194;6.856;2022-11-20T02:06:40;27.97;;;14.33;;
19183;SDS011;9724;51.194;6.856;2022-11-20T02:09:08;29.17;;;14.87;;
19183;SDS011;9724;51.194;6.856;2022-11-20T02:11:34;25.33;;;14.03;;
19183;SDS011;9724;51.194;6.856;2022-11-20T02:14:01;25.90;;;13.70;;
19183;SDS011;9724;51.194;6.856;2022-11-20T02:16:27;27.57;;;13.70;;
19183;SDS011;9724;51.194;6.856;2022-11-20T02:18:55;27.83;;;14.47;;
19183;SDS011;9724;51.194;6.856;2022-11-20T02:21:26;28.23;;;14.20;;
19183;SDS011;9724;51.194;6.856;2022-11-20T02:24:05;26.07;;;13.37;;
19183;SDS011;9724;51.194;6.856;2022-11-20T02:26:34;22.97;;;12.53;;
19183;SDS011;9724;51.194;6.856;2022-11-20T02:29:04;24.97;;;13.30;;
19183;SDS011;9724;51.194;6.856;2022-11-20T02:31:34;25.40;;;12.90;;
19183;SDS011;9724;51.194;6.856;2022-11-20T02:34:02;26.67;;;14.00;;
19183;SDS011;9724;51.194;6.856;2022-11-20T02:36:28;24.87;;;13.50;;
19183;SDS011;9724;51.194;6.856;2022-11-20T02:38:55;25.03;;;13.83;;
19183;SDS011;9724;51.194;6.856;2022-11-20T02:41:22;23.10;;;12.60;;
19183;SDS011;9724;51.194;6.856;2022-11-20T02:43:56;23.40;;;12.70;;
19183;SDS011;9724;51.194;6.856;2022-11-20T02:46:22;26.87;;;12.70;;
19183;SDS011;9724;51.194;6.856;2022-11-20T02:48:48;23.37;;;13.27;;
19183;SDS011;9724;51.194;6.856;2022-11-20T02:51:14;23.73;;;12.70;;
19183;SDS011;9724;51.194;6.856;2022-11-20T02:53:41;25.03;;;13.13;;
19183;SDS011;9724;51.194;6.856;2022-11-20T02:56:07;25.17;;;13.60;;
19183;SDS011;9724;51.194;6.856;2022-11-20T02:58:34;24.23;;;12.70;;
19183;SDS011;9724;51.194;6.856;2022-11-20T03:01:00;23.50;;;13.03;;
19183;SDS011;9724;51.194;6.856;2022-11-20T03:03:26;23.93;;;13.03;;
19183;SDS011;9724;51.194;6.856;2022-11-20T03:05:53;26.10;;;12.90;;
19183;SDS011;9724;51.194;6.856;2022-11-20T03:08:19;27.77;;;13.90;;
19183;SDS011;9724;51.194;6.856;2022-11-20T03:10:45;25.87;;;13.50;;
19183;SDS011;9724;51.194;6.856;2022-11-20T03:13:11;26.80;;;13.40;;
19183;SDS011;9724;51.194;6.856;2022-11-20T03:15:38;26.53;;;13.13;;
19183;SDS011;9724;51.194;6.856;2022-11-20T03:18:05;23.47;;;13.17;;
19183;SDS011;9724;51.194;6.856;2022-11-20T03:20:32;22.00;;;12.30;;
19183;SDS011;9724;51.194;6.856;2022-11-20T03:22:58;26.00;;;13.17;;
19183;SDS011;9724;51.194;6.856;2022-11-20T03:25:24;25.07;;;13.50;;
19183;SDS011;9724;51.194;6.856;2022-11-20T03:27:50;26.40;;;13.60;;
19183;SDS011;9724;51.194;6.856;2022-11-20T03:30:17;25.30;;;13.60;;
19183;SDS011;9724;51.194;6.856;2022-11-20T03:32:44;26.17;;;13.97;;
19183;SDS011;9724;51.194;6.856;2022-11-20T03:35:10;29.70;;;12.90;;
19183;SDS011;9724;51.194;6.856;2022-11-20T03:37:36;25.43;;;12.80;;
19183;SDS011;9724;51.194;6.856;2022-11-20T03:40:02;27.13;;;13.70;;
19183;SDS011;9724;51.194;6.856;2022-11-20T03:42:29;28.83;;;14.37;;
19183;SDS011;9724;51.194;6.856;2022-11-20T03:45:11;27.50;;;13.40;;
19183;SDS011;9724;51.194;6.856;2022-11-20T03:47:37;25.17;;;13.23;;
19183;SDS011;9724;51.194;6.856;2022-11-20T03:50:04;28.60;;;13.73;;
19183;SDS011;9724;51.194;6.856;2022-11-20T03:52:31;24.90;;;13.20;;
19183;SDS011;9724;51.194;6.856;2022-11-20T03:54:57;27.33;;;13.73;;
19183;SDS011;9724;51.194;6.856;2022-11-20T03:57:23;27.10;;;13.40;;
19183;SDS011;9724;51.194;6.856;2022-11-20T03:59:50;30.33;;;13.50;;
19183;SDS011;9724;51.194;6.856;2022-11-20T04:02:16;25.63;;;14.00;;
19183;SDS011;9724;51.194;6.856;2022-11-20T04:04:42;25.17;;;13.67;;
19183;SDS011;9724;51.194;6.856;2022-11-20T04:07:09;23.50;;;13.07;;
19183;SDS011;9724;51.194;6.856;2022-11-20T04:09:35;25.37;;;13.40;;
19183;SDS011;9724;51.194;6.856;2022-11-20T04:12:01;22.80;;;13.10;;
19183;SDS011;9724;51.194;6.856;2022-11-20T04:14:27;26.23;;;13.43;;
19183;SDS011;9724;51.194;6.856;2022-11-20T04:16:54;24.57;;;12.47;;
19183;SDS011;9724;51.194;6.856;2022-11-20T04:19:20;29.73;;;13.93;;
19183;SDS011;9724;51.194;6.856;2022-11-20T04:21:46;26.30;;;13.93;;
19183;SDS011;9724;51.194;6.856;2022-11-20T04:24:13;25.40;;;13.40;;
19183;SDS011;9724;51.194;6.856;2022-11-20T04:26:39;27.93;;;13.10;;
19183;SDS011;9724;51.194;6.856;2022-11-20T04:29:05;25.97;;;13.93;;
19183;SDS011;9724;51.194;6.856;2022-11-20T04:31:32;25.10;;;13.40;;
19183;SDS011;9724;51.194;6.856;2022-11-20T04:33:59;27.93;;;13.90;;
19183;SDS011;9724;51.194;6.856;2022-11-20T04:36:26;24.13;;;12.80;;
19183;SDS011;9724;51.194;6.856;2022-11-20T04:38:54;25.77;;;12.63;;
19183;SDS011;9724;51.194;6.856;2022-11-20T04:41:23;23.93;;;13.33;;
19183;SDS011;9724;51.194;6.856;2022-11-20T04:43:51;24.33;;;13.03;;
19183;SDS011;9724;51.194;6.856;2022-11-20T04:46:19;24.60;;;13.10;;
19183;SDS011;9724;51.194;6.856;2022-11-20T04:48:46;25.40;;;13.30;;
19183;SDS011;9724;51.194;6.856;2022-11-20T04:51:12;24.80;;;13.20;;
19183;SDS011;9724;51.194;6.856;2022-11-20T04:53:38;24.03;;;11.90;;
19183;SDS011;9724;51.194;6.856;2022-11-20T04:56:06;21.70;;;12.57;;
19183;SDS011;9724;51.194;6.856;2022-11-20T04:58:34;24.67;;;12.23;;
19183;SDS011;9724;51.194;6.856;2022-11-20T05:01:00;26.90;;;13.27;;
19183;SDS011;9724;51.194;6.856;2022-11-20T05:03:28;22.63;;;12.60;;
19183;SDS011;9724;51.194;6.856;2022-11-20T05:05:54;25.00;;;13.07;;
19183;SDS011;9724;51.194;6.856;2022-11-20T05:08:20;23.03;;;12.87;;
19183;SDS011;9724;51.194;6.856;2022-11-20T05:10:46;26.53;;;13.43;;
19183;SDS011;9724;51.194;6.856;2022-11-20T05:13:12;26.13;;;13.10;;
19183;SDS011;9724;51.194;6.856;2022-11-20T05:15:39;27.30;;;13.93;;
19183;SDS011;9724;51.194;6.856;2022-11-20T05:18:05;24.43;;;12.90;;
19183;SDS011;9724;51.194;6.856;2022-11-20T05:20:32;25.20;;;14.40;;
19183;SDS011;9724;51.194;6.856;2022-11-20T05:22:59;27.47;;;14.07;;
19183;SDS011;9724;51.194;6.856;2022-11-20T05:25:25;25.03;;;13.40;;
19183;SDS011;9724;51.194;6.856;2022-11-20T05:27:51;25.87;;;13.40;;
19183;SDS011;9724;51.194;6.856;2022-11-20T05:30:17;22.97;;;13.30;;
19183;SDS011;9724;51.194;6.856;2022-11-20T05:32:44;26.67;;;13.47;;
19183;SDS011;9724;51.194;6.856;2022-11-20T05:35:10;26.73;;;14.77;;
19183;SDS011;9724;51.194;6.856;2022-11-20T05:37:36;26.57;;;13.60;;
19183;SDS011;9724;51.194;6.856;2022-11-20T05:40:03;26.17;;;14.40;;
19183;SDS011;9724;51.194;6.856;2022-11-20T05:42:30;29.70;;;14.77;;
19183;SDS011;9724;51.194;6.856;2022-11-20T05:44:56;23.77;;;12.80;;
19183;SDS011;9724;51.194;6.856;2022-11-20T05:47:22;26.60;;;13.87;;
19183;SDS011;9724;51.194;6.856;2022-11-20T05:49:49;24.93;;;13.23;;
19183;SDS011;9724;51.194;6.856;2022-11-20T05:52:15;25.10;;;13.10;;
19183;SDS011;9724;51.194;6.856;2022-11-20T05:54:41;21.17;;;12.53;;
19183;SDS011;9724;51.194;6.856;2022-11-20T05:57:07;27.10;;;13.07;;
19183;SDS011;9724;51.194;6.856;2022-11-20T05:59:34;28.47;;;13.77;;
19183;SDS011;9724;51.194;6.856;2022-11-20T06:02:00;25.57;;;13.30;;
19183;SDS011;9724;51.194;6.856;2022-11-20T06:04:26;25.70;;;13.33;;
19183;SDS011;9724;51.194;6.856;2022-11-20T06:06:53;23.23;;;13.37;;
19183;SDS011;9724;51.194;6.856;2022-11-20T06:09:19;29.10;;;14.37;;
19183;SDS011;9724;51.194;6.856;2022-11-20T06:11:45;30.00;;;14.70;;
19183;SDS011;9724;51.194;6.856;2022-11-20T06:14:12;24.67;;;13.37;;
19183;SDS011;9724;51.194;6.856;2022-11-20T06:16:38;26.30;;;13.30;;
19183;SDS011;9724;51.194;6.856;2022-11-20T06:19:04;26.70;;;13.97;;
19183;SDS011;9724;51.194;6.856;2022-11-20T06:21:30;26.10;;;13.90;;
19183;SDS011;9724;51.194;6.856;2022-11-20T06:23:57;25.87;;;13.63;;
19183;SDS011;9724;51.194;6.856;2022-11-20T06:26:24;29.53;;;13.77;;
19183;SDS011;9724;51.194;6.856;2022-11-20T06:28:53;28.97;;;14.27;;
19183;SDS011;9724;51.194;6.856;2022-11-20T06:31:21;27.87;;;14.10;;
19183;SDS011;9724;51.194;6.856;2022-11-20T06:33:49;24.73;;;13.30;;
19183;SDS011;9724;51.194;6.856;2022-11-20T06:36:16;25.70;;;14.00;;
19183;SDS011;9724;51.194;6.856;2022-11-20T06:38:43;25.00;;;13.20;;
19183;SDS011;9724;51.194;6.856;2022-11-20T06:41:11;24.47;;;13.20;;
19183;SDS011;9724;51.194;6.856;2022-11-20T06:43:38;26.20;;;14.03;;
19183;SDS011;9724;51.194;6.856;2022-11-20T06:46:05;24.90;;;13.43;;
19183;SDS011;9724;51.194;6.856;2022-11-20T06:48:31;25.33;;;13.27;;
19183;SDS011;9724;51.194;6.856;2022-11-20T06:50:57;25.30;;;13.77;;
19183;SDS011;9724;51.194;6.856;2022-11-20T06:53:24;26.80;;;13.83;;
19183;SDS011;9724;51.194;6.856;2022-11-20T06:55:51;25.57;;;13.83;;
19183;SDS011;9724;51.194;6.856;2022-11-20T06:58:18;24.63;;;13.60;;
19183;SDS011;9724;51.194;6.856;2022-11-20T07:00:44;28.53;;;14.00;;
19183;SDS011;9724;51.194;6.856;2022-11-20T07:03:11;26.13;;;14.10;;
19183;SDS011;9724;51.194;6.856;2022-11-20T07:05:37;24.53;;;13.77;;
19183;SDS011;9724;51.194;6.856;2022-11-20T07:08:04;25.47;;;13.50;;
19183;SDS011;9724;51.194;6.856;2022-11-20T07:10:30;27.77;;;13.67;;
19183;SDS011;9724;51.194;6.856;2022-11-20T07:12:57;30.40;;;13.87;;
19183;SDS011;9724;51.194;6.856;2022-11-20T07:15:24;26.97;;;14.23;;
19183;SDS011;9724;51.194;6.856;2022-11-20T07:17:51;25.40;;;13.03;;
19183;SDS011;9724;51.194;6.856;2022-11-20T07:20:18;27.90;;;14.07;;
19183;SDS011;9724;51.194;6.856;2022-11-20T07:22:44;27.93;;;13.87;;
19183;SDS011;9724;51.194;6.856;2022-11-20T07:25:10;24.13;;;13.43;;
19183;SDS011;9724;51.194;6.856;2022-11-20T07:27:36;26.80;;;13.90;;
19183;SDS011;9724;51.194;6.856;2022-11-20T07:30:03;31.30;;;14.20;;
19183;SDS011;9724;51.194;6.856;2022-11-20T07:32:30;28.80;;;13.27;;
19183;SDS011;9724;51.194;6.856;2022-11-20T07:34:57;26.80;;;14.27;;
19183;SDS011;9724;51.194;6.856;2022-11-20T07:37:23;27.90;;;13.23;;
19183;SDS011;9724;51.194;6.856;2022-11-20T07:39:49;27.67;;;14.03;;
19183;SDS011;9724;51.194;6.856;2022-11-20T07:42:15;30.93;;;14.30;;
19183;SDS011;9724;51.194;6.856;2022-11-20T07:44:41;28.13;;;14.87;;
19183;SDS011;9724;51.194;6.856;2022-11-20T07:47:07;33.77;;;14.43;;
19183;SDS011;9724;51.194;6.856;2022-11-20T07:49:35;25.63;;;13.73;;
19183;SDS011;9724;51.194;6.856;2022-11-20T07:52:01;31.67;;;15.23;;
19183;SDS011;9724;51.194;6.856;2022-11-20T07:54:30;36.03;;;18.03;;
19183;SDS011;9724;51.194;6.856;2022-11-20T07:56:56;39.67;;;21.10;;
19183;SDS011;9724;51.194;6.856;2022-11-20T07:59:22;43.23;;;22.67;;
19183;SDS011;9724;51.194;6.856;2022-11-20T08:01:49;40.43;;;20.97;;
19183;SDS011;9724;51.194;6.856;2022-11-20T08:04:16;35.63;;;17.70;;
19183;SDS011;9724;51.194;6.856;2022-11-20T08:06:43;32.67;;;15.20;;
19183;SDS011;9724;51.194;6.856;2022-11-20T08:09:09;32.67;;;15.50;;
19183;SDS011;9724;51.194;6.856;2022-11-20T08:11:35;32.07;;;14.87;;
19183;SDS011;9724;51.194;6.856;2022-11-20T08:14:19;27.90;;;14.50;;
19183;SDS011;9724;51.194;6.856;2022-11-20T08:16:46;33.20;;;15.77;;
19183;SDS011;9724;51.194;6.856;2022-11-20T08:19:14;30.70;;;16.10;;
19183;SDS011;9724;51.194;6.856;2022-11-20T08:21:41;31.63;;;15.80;;
19183;SDS011;9724;51.194;6.856;2022-11-20T08:24:08;28.50;;;15.83;;
19183;SDS011;9724;51.194;6.856;2022-11-20T08:26:35;31.30;;;15.33;;
19183;SDS011;9724;51.194;6.856;2022-11-20T08:29:02;31.93;;;15.30;;
19183;SDS011;9724;51.194;6.856;2022-11-20T08:31:29;31.20;;;15.93;;
19183;SDS011;9724;51.194;6.856;2022-11-20T08:33:56;34.57;;;15.97;;
19183;SDS011;9724;51.194;6.856;2022-11-20T08:36:24;28.63;;;14.87;;
19183;SDS011;9724;51.194;6.856;2022-11-20T08:38:51;28.93;;;15.30;;
19183;SDS011;9724;51.194;6.856;2022-11-20T08:41:18;28.17;;;14.80;;
19183;SDS011;9724;51.194;6.856;2022-11-20T08:43:55;27.77;;;13.97;;
19183;SDS011;9724;51.194;6.856;2022-11-20T08:46:22;26.63;;;14.20;;
19183;SDS011;9724;51.194;6.856;2022-11-20T08:48:49;24.13;;;13.53;;
19183;SDS011;9724;51.194;6.856;2022-11-20T08:51:15;25.10;;;13.67;;
19183;SDS011;9724;51.194;6.856;2022-11-20T08:53:42;28.27;;;14.20;;
19183;SDS011;9724;51.194;6.856;2022-11-20T08:56:08;26.80;;;13.37;;
19183;SDS011;9724;51.194;6.856;2022-11-20T08:58:36;25.80;;;13.50;;
19183;SDS011;9724;51.194;6.856;2022-11-20T09:01:22;24.30;;;13.87;;
19183;SDS011;9724;51.194;6.856;2022-11-20T09:03:49;27.07;;;13.63;;
19183;SDS011;9724;51.194;6.856;2022-11-20T09:06:16;26.30;;;13.87;;
19183;SDS011;9724;51.194;6.856;2022-11-20T09:08:42;25.70;;;13.63;;
19183;SDS011;9724;51.194;6.856;2022-11-20T09:11:08;24.77;;;13.63;;
19183;SDS011;9724;51.194;6.856;2022-11-20T09:13:35;33.07;;;13.57;;
19183;SDS011;9724;51.194;6.856;2022-11-20T09:16:03;26.03;;;14.07;;
19183;SDS011;9724;51.194;6.856;2022-11-20T09:18:31;27.57;;;14.13;;
19183;SDS011;9724;51.194;6.856;2022-11-20T09:20:57;26.90;;;14.10;;
19183;SDS011;9724;51.194;6.856;2022-11-20T09:23:24;26.13;;;14.30;;
19183;SDS011;9724;51.194;6.856;2022-11-20T09:25:50;26.27;;;13.57;;
19183;SDS011;9724;51.194;6.856;2022-11-20T09:28:18;26.73;;;14.03;;
19183;SDS011;9724;51.194;6.856;2022-11-20T09:30:44;24.30;;;13.47;;
19183;SDS011;9724;51.194;6.856;2022-11-20T09:33:11;24.27;;;13.90;;
19183;SDS011;9724;51.194;6.856;2022-11-20T09:35:37;32.43;;;15.07;;
19183;SDS011;9724;51.194;6.856;2022-11-20T09:38:06;30.60;;;14.53;;
19183;SDS011;9724;51.194;6.856;2022-11-20T09:40:33;28.80;;;13.70;;
19183;SDS011;9724;51.194;6.856;2022-11-20T09:43:01;27.60;;;13.87;;
19183;SDS011;9724;51.194;6.856;2022-11-20T09:45:42;28.37;;;13.60;;
19183;SDS011;9724;51.194;6.856;2022-11-20T09:48:20;25.70;;;13.17;;
19183;SDS011;9724;51.194;6.856;2022-11-20T09:50:53;23.30;;;13.27;;
19183;SDS011;9724;51.194;6.856;2022-11-20T09:53:27;22.77;;;12.90;;
19183;SDS011;9724;51.194;6.856;2022-11-20T09:55:59;21.37;;;11.97;;
19183;SDS011;9724;51.194;6.856;2022-11-20T09:58:29;20.90;;;12.10;;
19183;SDS011;9724;51.194;6.856;2022-11-20T10:00:59;23.93;;;12.03;;
19183;SDS011;9724;51.194;6.856;2022-11-20T10:03:32;21.67;;;11.87;;
19183;SDS011;9724;51.194;6.856;2022-11-20T10:06:03;23.70;;;13.47;;
19183;SDS011;9724;51.194;6.856;2022-11-20T10:08:32;20.93;;;11.33;;
19183;SDS011;9724;51.194;6.856;2022-11-20T10:11:06;23.57;;;12.40;;
19183;SDS011;9724;51.194;6.856;2022-11-20T10:13:39;21.33;;;11.90;;
19183;SDS011;9724;51.194;6.856;2022-11-20T10:16:14;22.93;;;12.50;;
19183;SDS011;9724;51.194;6.856;2022-11-20T10:18:49;22.60;;;12.13;;
19183;SDS011;9724;51.194;6.856;2022-11-20T10:21:24;24.27;;;13.10;;
19183;SDS011;9724;51.194;6.856;2022-11-20T10:23:59;21.27;;;11.77;;
19183;SDS011;9724;51.194;6.856;2022-11-20T10:26:38;26.07;;;12.43;;
19183;SDS011;9724;51.194;6.856;2022-11-20T10:29:10;24.63;;;12.63;;
19183;SDS011;9724;51.194;6.856;2022-11-20T10:31:39;23.03;;;13.20;;
19183;SDS011;9724;51.194;6.856;2022-11-20T10:34:07;24.73;;;13.33;;
19183;SDS011;9724;51.194;6.856;2022-11-20T10:36:49;26.97;;;12.67;;
19183;SDS011;9724;51.194;6.856;2022-11-20T10:39:19;24.30;;;13.73;;
19183;SDS011;9724;51.194;6.856;2022-11-20T10:41:50;29.50;;;15.90;;
19183;SDS011;9724;51.194;6.856;2022-11-20T10:44:19;25.70;;;13.57;;
19183;SDS011;9724;51.194;6.856;2022-11-20T10:47:20;29.40;;;13.77;;
19183;SDS011;9724;51.194;6.856;2022-11-20T10:49:48;25.33;;;13.37;;
19183;SDS011;9724;51.194;6.856;2022-11-20T10:52:18;30.03;;;14.33;;
19183;SDS011;9724;51.194;6.856;2022-11-20T10:54:49;26.50;;;14.33;;
19183;SDS011;9724;51.194;6.856;2022-11-20T10:57:25;24.37;;;13.03;;
19183;SDS011;9724;51.194;6.856;2022-11-20T11:00:02;27.97;;;12.87;;
19183;SDS011;9724;51.194;6.856;2022-11-20T11:02:35;21.63;;;12.70;;
19183;SDS011;9724;51.194;6.856;2022-11-20T11:05:10;28.53;;;13.77;;
19183;SDS011;9724;51.194;6.856;2022-11-20T11:07:42;24.13;;;13.27;;
19183;SDS011;9724;51.194;6.856;2022-11-20T11:10:13;24.37;;;12.53;;
19183;SDS011;9724;51.194;6.856;2022-11-20T11:12:43;25.60;;;13.23;;
19183;SDS011;9724;51.194;6.856;2022-11-20T11:15:11;25.23;;;12.50;;
19183;SDS011;9724;51.194;6.856;2022-11-20T11:17:45;25.37;;;13.90;;
19183;SDS011;9724;51.194;6.856;2022-11-20T11:20:15;24.73;;;13.27;;
19183;SDS011;9724;51.194;6.856;2022-11-20T11:22:43;23.53;;;13.00;;
19183;SDS011;9724;51.194;6.856;2022-11-20T11:25:12;24.97;;;12.90;;
19183;SDS011;9724;51.194;6.856;2022-11-20T11:27:45;24.70;;;13.23;;
19183;SDS011;9724;51.194;6.856;2022-11-20T11:30:13;28.93;;;14.13;;
19183;SDS011;9724;51.194;6.856;2022-11-20T11:32:41;24.57;;;13.47;;
19183;SDS011;9724;51.194;6.856;2022-11-20T11:35:17;26.93;;;13.93;;
19183;SDS011;9724;51.194;6.856;2022-11-20T11:37:45;28.20;;;13.87;;
19183;SDS011;9724;51.194;6.856;2022-11-20T11:40:13;29.33;;;15.63;;
19183;SDS011;9724;51.194;6.856;2022-11-20T11:42:56;26.67;;;14.53;;
19183;SDS011;9724;51.194;6.856;2022-11-20T11:45:24;29.43;;;14.50;;
19183;SDS011;9724;51.194;6.856;2022-11-20T11:47:51;24.27;;;13.87;;
19183;SDS011;9724;51.194;6.856;2022-11-20T11:50:19;23.83;;;13.30;;
19183;SDS011;9724;51.194;6.856;2022-11-20T11:52:49;28.30;;;13.93;;
19183;SDS011;9724;51.194;6.856;2022-11-20T11:55:22;27.23;;;14.53;;
19183;SDS011;9724;51.194;6.856;2022-11-20T11:57:54;26.77;;;14.60;;
19183;SDS011;9724;51.194;6.856;2022-11-20T12:00:23;25.50;;;13.43;;
19183;SDS011;9724;51.194;6.856;2022-11-20T12:02:54;25.03;;;14.40;;
19183;SDS011;9724;51.194;6.856;2022-11-20T12:05:24;27.10;;;14.33;;
19183;SDS011;9724;51.194;6.856;2022-11-20T12:07:52;34.27;;;14.43;;
19183;SDS011;9724;51.194;6.856;2022-11-20T12:10:23;31.07;;;15.07;;
19183;SDS011;9724;51.194;6.856;2022-11-20T12:12:54;30.17;;;15.03;;
19183;SDS011;9724;51.194;6.856;2022-11-20T12:15:29;32.33;;;15.07;;
19183;SDS011;9724;51.194;6.856;2022-11-20T12:17:56;32.33;;;15.77;;
19183;SDS011;9724;51.194;6.856;2022-11-20T12:20:24;27.70;;;14.43;;
19183;SDS011;9724;51.194;6.856;2022-11-20T12:22:55;29.87;;;15.83;;
19183;SDS011;9724;51.194;6.856;2022-11-20T12:25:26;28.37;;;15.43;;
19183;SDS011;9724;51.194;6.856;2022-11-20T12:28:00;30.00;;;15.53;;
19183;SDS011;9724;51.194;6.856;2022-11-20T12:30:38;30.13;;;16.33;;
19183;SDS011;9724;51.194;6.856;2022-11-20T12:33:11;32.20;;;16.30;;
19183;SDS011;9724;51.194;6.856;2022-11-20T12:36:00;31.40;;;16.20;;
19183;SDS011;9724;51.194;6.856;2022-11-20T12:38:54;31.83;;;16.87;;
19183;SDS011;9724;51.194;6.856;2022-11-20T12:41:38;30.97;;;18.37;;
19183;SDS011;9724;51.194;6.856;2022-11-20T12:44:42;30.80;;;16.43;;
19183;SDS011;9724;51.194;6.856;2022-11-20T12:47:37;31.17;;;16.30;;
19183;SDS011;9724;51.194;6.856;2022-11-20T12:50:14;35.57;;;17.70;;
19183;SDS011;9724;51.194;6.856;2022-11-20T12:52:46;35.13;;;16.97;;
19183;SDS011;9724;51.194;6.856;2022-11-20T12:55:16;33.83;;;16.17;;
19183;SDS011;9724;51.194;6.856;2022-11-20T12:57:49;34.80;;;16.90;;
19183;SDS011;9724;51.194;6.856;2022-11-20T13:00:17;37.60;;;16.90;;
19183;SDS011;9724;51.194;6.856;2022-11-20T13:03:00;36.67;;;18.90;;
19183;SDS011;9724;51.194;6.856;2022-11-20T13:05:52;36.60;;;17.87;;
19183;SDS011;9724;51.194;6.856;2022-11-20T13:08:23;35.63;;;17.13;;
19183;SDS011;9724;51.194;6.856;2022-11-20T13:10:52;35.67;;;17.67;;
19183;SDS011;9724;51.194;6.856;2022-11-20T13:13:23;39.70;;;18.33;;
19183;SDS011;9724;51.194;6.856;2022-11-20T13:15:53;37.77;;;18.87;;
19183;SDS011;9724;51.194;6.856;2022-11-20T13:18:22;39.40;;;18.13;;
19183;SDS011;9724;51.194;6.856;2022-11-20T13:20:48;37.90;;;18.00;;
19183;SDS011;9724;51.194;6.856;2022-11-20T13:23:25;37.90;;;18.47;;
19183;SDS011;9724;51.194;6.856;2022-11-20T13:26:01;35.33;;;17.07;;
19183;SDS011;9724;51.194;6.856;2022-11-20T13:28:29;35.50;;;18.03;;
19183;SDS011;9724;51.194;6.856;2022-11-20T13:30:56;37.87;;;19.40;;
19183;SDS011;9724;51.194;6.856;2022-11-20T13:33:23;39.20;;;18.30;;
19183;SDS011;9724;51.194;6.856;2022-11-20T13:35:57;33.03;;;17.10;;
19183;SDS011;9724;51.194;6.856;2022-11-20T13:38:25;37.93;;;18.03;;
19183;SDS011;9724;51.194;6.856;2022-11-20T13:40:58;32.50;;;15.93;;
19183;SDS011;9724;51.194;6.856;2022-11-20T13:43:46;37.17;;;18.40;;
19183;SDS011;9724;51.194;6.856;2022-11-20T13:46:13;35.70;;;17.13;;
19183;SDS011;9724;51.194;6.856;2022-11-20T13:48:41;34.33;;;16.77;;
19183;SDS011;9724;51.194;6.856;2022-11-20T13:51:11;37.33;;;17.83;;
19183;SDS011;9724;51.194;6.856;2022-11-20T13:53:52;36.80;;;17.87;;
19183;SDS011;9724;51.194;6.856;2022-11-20T13:56:42;35.30;;;17.27;;
19183;SDS011;9724;51.194;6.856;2022-11-20T13:59:15;38.37;;;18.13;;
19183;SDS011;9724;51.194;6.856;2022-11-20T14:01:53;42.50;;;18.83;;
19183;SDS011;9724;51.194;6.856;2022-11-20T14:04:21;42.17;;;19.20;;
19183;SDS011;9724;51.194;6.856;2022-11-20T14:06:51;39.70;;;18.07;;
19183;SDS011;9724;51.194;6.856;2022-11-20T14:09:25;39.43;;;17.03;;
19183;SDS011;9724;51.194;6.856;2022-11-20T14:11:52;35.40;;;16.80;;
19183;SDS011;9724;51.194;6.856;2022-11-20T14:14:19;34.17;;;17.13;;
19183;SDS011;9724;51.194;6.856;2022-11-20T14:16:47;41.43;;;19.17;;
19183;SDS011;9724;51.194;6.856;2022-11-20T14:19:23;53.20;;;20.27;;
19183;SDS011;9724;51.194;6.856;2022-11-20T14:21:53;33.87;;;16.07;;
19183;SDS011;9724;51.194;6.856;2022-11-20T14:24:20;32.07;;;16.47;;
19183;SDS011;9724;51.194;6.856;2022-11-20T14:26:49;37.97;;;18.30;;
19183;SDS011;9724;51.194;6.856;2022-11-20T14:29:17;37.77;;;17.87;;
19183;SDS011;9724;51.194;6.856;2022-11-20T14:31:44;38.77;;;17.77;;
19183;SDS011;9724;51.194;6.856;2022-11-20T14:34:20;42.37;;;18.47;;
19183;SDS011;9724;51.194;6.856;2022-11-20T14:36:48;41.67;;;19.37;;
19183;SDS011;9724;51.194;6.856;2022-11-20T14:39:19;38.50;;;18.83;;
19183;SDS011;9724;51.194;6.856;2022-11-20T14:41:50;41.07;;;18.53;;
19183;SDS011;9724;51.194;6.856;2022-11-20T14:44:16;36.20;;;17.13;;